createdAt,value
2022-10-10T00:01:16.420Z,18.80
2022-10-10T00:03:44.587Z,20.25
2022-10-10T00:06:12.738Z,19.52
2022-10-10T00:08:41.756Z,18.25
2022-10-10T00:11:09.907Z,18.98
2022-10-10T00:13:38.128Z,17.80
2022-10-10T00:16:07.700Z,19.20
2022-10-10T00:18:35.734Z,18.45
2022-10-10T00:21:03.971Z,21.55
2022-10-10T00:23:32.017Z,20.80
2022-10-10T00:26:00.077Z,18.90
2022-10-10T00:28:28.599Z,22.65
2022-10-10T00:30:56.768Z,16.67
2022-10-10T00:33:26.184Z,19.75
2022-10-10T00:35:54.299Z,18.63
2022-10-10T00:38:22.313Z,21.48
2022-10-10T00:40:51.584Z,16.13
2022-10-10T00:43:19.817Z,17.27
2022-10-10T00:45:48.323Z,22.27
2022-10-10T00:48:17.375Z,20.58
2022-10-10T00:50:49.343Z,18.40
2022-10-10T00:53:18.465Z,20.35
2022-10-10T00:55:46.506Z,24.30
2022-10-10T00:58:14.567Z,19.48
2022-10-10T01:00:42.663Z,18.88
2022-10-10T01:03:10.778Z,19.25
2022-10-10T01:05:38.852Z,18.33
2022-10-10T01:08:08.258Z,20.42
2022-10-10T01:10:40.521Z,19.27
2022-10-10T01:13:12.514Z,21.67
2022-10-10T01:15:47.559Z,18.13
2022-10-10T01:18:19.749Z,19.50
2022-10-10T01:21:09.936Z,20.20
2022-10-10T01:24:23.827Z,18.90
2022-10-10T01:27:19.877Z,18.48
2022-10-10T01:29:52.200Z,19.60
2022-10-10T01:32:24.129Z,17.90
2022-10-10T01:34:57.952Z,19.25
2022-10-10T01:37:29.915Z,19.98
2022-10-10T01:39:59.605Z,18.23
2022-10-10T01:42:31.086Z,21.50
2022-10-10T01:45:00.514Z,19.35
2022-10-10T01:47:28.558Z,19.70
2022-10-10T01:49:58.396Z,17.42
2022-10-10T01:52:34.397Z,18.20
2022-10-10T01:55:10.738Z,18.30
2022-10-10T01:57:41.782Z,20.17
2022-10-10T02:00:12.312Z,17.70
2022-10-10T02:02:48.165Z,16.85
2022-10-10T02:05:20.193Z,17.58
2022-10-10T02:07:50.059Z,18.17
2022-10-10T02:10:20.827Z,17.60
2022-10-10T02:12:49.285Z,19.52
2022-10-10T02:15:20.954Z,17.17
2022-10-10T02:17:49.418Z,17.98
2022-10-10T02:20:18.845Z,18.40
2022-10-10T02:22:47.418Z,20.00
2022-10-10T02:25:15.623Z,16.15
2022-10-10T02:27:45.809Z,18.92
2022-10-10T02:30:14.033Z,18.50
2022-10-10T02:32:44.600Z,16.35
2022-10-10T02:35:15.514Z,18.20
2022-10-10T02:37:43.576Z,18.17
2022-10-10T02:40:12.800Z,16.83
2022-10-10T02:42:40.837Z,18.73
2022-10-10T02:45:09.351Z,18.88
2022-10-10T02:47:37.378Z,19.13
2022-10-10T02:50:07.858Z,16.38
2022-10-10T02:52:35.975Z,17.95
2022-10-10T02:55:04.045Z,19.27
2022-10-10T02:57:32.106Z,17.35
2022-10-10T03:00:00.210Z,19.10
2022-10-10T03:02:28.260Z,18.60
2022-10-10T03:04:56.363Z,17.58
2022-10-10T03:07:25.971Z,16.52
2022-10-10T03:09:53.989Z,18.30
2022-10-10T03:12:22.049Z,17.30
2022-10-10T03:14:50.111Z,18.40
2022-10-10T03:17:18.227Z,17.83
2022-10-10T03:19:46.268Z,18.15
2022-10-10T03:22:14.276Z,17.23
2022-10-10T03:24:43.672Z,16.45
2022-10-10T03:27:11.712Z,16.45
2022-10-10T03:29:39.803Z,15.43
2022-10-10T03:32:10.843Z,17.42
2022-10-10T03:34:39.276Z,15.32
2022-10-10T03:37:07.357Z,14.00
2022-10-10T03:39:35.401Z,16.17
2022-10-10T03:42:05.155Z,15.90
2022-10-10T03:44:33.226Z,17.90
2022-10-10T03:47:01.274Z,15.07
2022-10-10T03:49:29.462Z,14.77
2022-10-10T03:51:57.515Z,14.63
2022-10-10T03:54:25.574Z,13.35
2022-10-10T03:56:53.729Z,15.80
2022-10-10T03:59:23.117Z,15.52
2022-10-10T04:01:51.210Z,13.98
2022-10-10T04:04:19.260Z,13.73
2022-10-10T04:06:47.313Z,13.45
2022-10-10T04:09:15.353Z,15.18
2022-10-10T04:11:43.418Z,14.85
2022-10-10T04:14:11.429Z,14.80
2022-10-10T04:16:40.824Z,13.63
2022-10-10T04:19:08.925Z,15.90
2022-10-10T04:21:37.013Z,14.52
2022-10-10T04:24:05.383Z,17.23
2022-10-10T04:26:33.424Z,14.25
2022-10-10T04:29:01.544Z,13.55
2022-10-10T04:31:29.776Z,12.57
2022-10-10T04:33:59.183Z,13.07
2022-10-10T04:36:27.245Z,14.45
2022-10-10T04:38:55.291Z,15.50
2022-10-10T04:41:23.342Z,15.35
2022-10-10T04:43:51.388Z,13.70
2022-10-10T04:46:19.453Z,15.85
2022-10-10T04:48:47.483Z,15.68
2022-10-10T04:51:17.049Z,15.93
2022-10-10T04:53:50.082Z,13.13
2022-10-10T04:56:18.606Z,17.08
2022-10-10T04:58:46.668Z,13.40
2022-10-10T05:01:14.753Z,15.38
2022-10-10T05:03:42.885Z,14.70
2022-10-10T05:06:10.915Z,14.13
2022-10-10T05:08:40.371Z,15.38
2022-10-10T05:11:08.439Z,17.80
2022-10-10T05:13:36.475Z,14.13
2022-10-10T05:16:04.527Z,15.00
2022-10-10T05:18:32.557Z,14.60
2022-10-10T05:21:03.648Z,29.05
2022-10-10T05:23:32.133Z,25.20
2022-10-10T05:26:01.581Z,24.15
2022-10-10T05:28:29.691Z,25.33
2022-10-10T05:30:57.759Z,33.50
2022-10-10T05:33:25.941Z,35.25
2022-10-10T05:35:54.052Z,35.92
2022-10-10T05:38:22.113Z,42.63
2022-10-10T05:40:50.127Z,36.17
2022-10-10T05:43:19.515Z,34.75
2022-10-10T05:45:47.584Z,35.15
2022-10-10T05:48:15.616Z,46.67
2022-10-10T05:50:48.758Z,36.42
2022-10-10T05:53:16.910Z,44.00
2022-10-10T05:55:45.120Z,39.13
2022-10-10T05:58:14.196Z,35.42
2022-10-10T06:00:43.831Z,37.53
2022-10-10T06:03:14.030Z,34.92
2022-10-10T06:05:42.227Z,40.25
2022-10-10T06:08:12.107Z,36.67
2022-10-10T06:10:41.558Z,32.22
2022-10-10T06:13:09.791Z,37.47
2022-10-10T06:15:37.976Z,32.97
2022-10-10T06:18:07.828Z,36.03
2022-10-10T06:20:36.551Z,36.40
2022-10-10T06:23:04.804Z,36.72
2022-10-10T06:25:41.942Z,35.17
2022-10-10T06:28:10.423Z,38.45
2022-10-10T06:30:41.479Z,31.02
2022-10-10T06:33:11.003Z,31.42
2022-10-10T06:35:42.495Z,28.48
2022-10-10T06:38:10.702Z,27.30
2022-10-10T06:40:39.253Z,24.20
2022-10-10T06:43:11.447Z,28.60
2022-10-10T06:45:40.103Z,30.80
2022-10-10T06:48:08.414Z,24.67
2022-10-10T06:50:37.925Z,24.05
2022-10-10T06:53:05.993Z,25.10
2022-10-10T06:55:34.028Z,25.67
2022-10-10T06:58:02.122Z,21.67
2022-10-10T07:00:30.312Z,21.88
2022-10-10T07:02:58.362Z,22.10
2022-10-10T07:05:26.435Z,25.13
2022-10-10T07:07:55.876Z,25.60
2022-10-10T07:10:24.066Z,19.13
2022-10-10T07:12:52.536Z,22.88
2022-10-10T07:15:20.664Z,20.38
2022-10-10T07:17:54.112Z,22.90
2022-10-10T07:20:22.551Z,24.15
2022-10-10T07:22:51.077Z,22.48
2022-10-10T07:25:20.668Z,22.83
2022-10-10T07:27:49.347Z,20.13
2022-10-10T07:30:17.605Z,20.20
2022-10-10T07:32:45.667Z,21.75
2022-10-10T07:35:13.757Z,19.42
2022-10-10T07:37:41.872Z,20.90
2022-10-10T07:40:10.762Z,19.02
2022-10-10T07:42:40.305Z,18.52
2022-10-10T07:45:10.379Z,23.90
2022-10-10T07:47:38.444Z,25.60
2022-10-10T07:50:07.731Z,27.38
2022-10-10T07:52:35.853Z,23.75
2022-10-10T07:55:05.478Z,29.38
2022-10-10T07:57:35.098Z,22.08
2022-10-10T08:00:05.828Z,27.38
2022-10-10T08:02:39.794Z,19.70
2022-10-10T08:05:08.498Z,23.02
2022-10-10T08:07:36.579Z,24.25
2022-10-10T08:10:04.887Z,26.77
2022-10-10T08:12:33.058Z,37.80
2022-10-10T08:15:01.280Z,35.85
2022-10-10T08:17:30.767Z,41.80
2022-10-10T08:19:58.839Z,48.00
2022-10-10T08:22:26.914Z,37.22
2022-10-10T08:24:55.013Z,41.72
2022-10-10T08:27:23.079Z,35.00
2022-10-10T08:29:51.527Z,26.88
2022-10-10T08:32:19.761Z,26.73
2022-10-10T08:34:49.200Z,29.38
2022-10-10T08:37:17.255Z,36.63
2022-10-10T08:39:45.328Z,24.45
2022-10-10T08:42:16.669Z,32.33
2022-10-10T08:44:46.677Z,29.42
2022-10-10T08:47:16.344Z,25.10
2022-10-10T08:49:45.964Z,31.25
2022-10-10T08:52:19.747Z,30.70
2022-10-10T08:54:47.902Z,25.58
2022-10-10T08:57:23.739Z,31.40
2022-10-10T09:02:43.628Z,29.85
2022-10-10T09:05:19.678Z,29.38
2022-10-10T09:07:59.088Z,29.63
2022-10-10T09:10:30.361Z,25.95
2022-10-10T09:13:01.840Z,25.95
2022-10-10T09:15:32.112Z,26.80
2022-10-10T09:18:03.321Z,27.42
2022-10-10T09:20:38.077Z,24.95
2022-10-10T09:23:09.958Z,23.65
2022-10-10T09:25:40.147Z,26.85
2022-10-10T09:28:11.835Z,27.77
2022-10-10T09:30:44.122Z,23.67
2022-10-10T09:33:28.001Z,25.23
2022-10-10T09:35:56.157Z,29.33
2022-10-10T09:38:33.263Z,25.00
2022-10-10T09:41:02.847Z,24.83
2022-10-10T09:43:33.144Z,24.30
2022-10-10T09:46:01.247Z,20.83
2022-10-10T09:48:30.853Z,23.98
2022-10-10T09:50:59.031Z,21.27
2022-10-10T09:53:28.801Z,22.05
2022-10-10T09:55:56.889Z,25.63
2022-10-10T09:58:28.946Z,25.70
2022-10-10T10:00:57.320Z,24.95
2022-10-10T10:03:25.557Z,23.88
2022-10-10T10:05:57.664Z,22.55
2022-10-10T10:08:28.828Z,23.63
2022-10-10T10:11:00.181Z,19.13
2022-10-10T10:13:30.693Z,21.10
2022-10-10T10:16:02.175Z,21.52
2022-10-10T10:18:30.285Z,22.27
2022-10-10T10:21:25.778Z,19.15
2022-10-10T10:23:57.745Z,22.35
2022-10-10T10:26:31.030Z,16.33
2022-10-10T10:28:59.497Z,19.05
2022-10-10T10:31:55.783Z,20.05
2022-10-10T10:34:49.507Z,21.25
2022-10-10T10:37:22.254Z,18.27
2022-10-10T10:40:04.825Z,20.33
2022-10-10T10:42:40.308Z,18.65
2022-10-10T10:45:11.009Z,17.27
2022-10-10T10:47:43.351Z,17.67
2022-10-10T10:50:24.614Z,18.48
2022-10-10T10:52:58.040Z,16.05
2022-10-10T10:55:33.144Z,16.85
2022-10-10T11:01:28.617Z,17.27
2022-10-10T11:05:16.594Z,16.70
2022-10-10T11:07:17.897Z,18.77
2022-10-10T11:09:50.429Z,15.45
2022-10-10T11:12:34.759Z,17.88
2022-10-10T11:15:04.433Z,15.57
2022-10-10T11:17:37.684Z,15.35
2022-10-10T11:20:09.728Z,14.63
2022-10-10T11:22:39.526Z,14.95
2022-10-10T11:25:09.502Z,15.98
2022-10-10T11:27:41.076Z,14.98
2022-10-10T11:30:14.255Z,14.90
2022-10-10T11:32:47.774Z,11.55
2022-10-10T11:35:19.886Z,13.15
2022-10-10T11:37:50.988Z,11.10
2022-10-10T11:40:31.394Z,10.95
2022-10-10T11:43:02.733Z,10.93
2022-10-10T11:45:32.352Z,10.13
2022-10-10T11:48:04.136Z,11.80
2022-10-10T11:50:33.075Z,11.32
2022-10-10T11:53:03.067Z,11.15
2022-10-10T11:55:37.565Z,11.10
2022-10-10T11:58:24.664Z,9.55
2022-10-10T12:00:54.110Z,10.18
2022-10-10T12:03:22.148Z,7.90
2022-10-10T12:05:51.403Z,9.55
2022-10-10T12:08:20.725Z,11.27
2022-10-10T12:10:50.695Z,8.45
2022-10-10T12:13:26.165Z,9.85
2022-10-10T12:15:54.636Z,8.80
2022-10-10T12:18:27.760Z,9.80
2022-10-10T12:21:06.436Z,7.63
2022-10-10T12:23:34.540Z,9.00
2022-10-10T12:26:02.894Z,8.93
2022-10-10T12:28:37.222Z,9.63
2022-10-10T12:31:34.625Z,9.38
2022-10-10T12:34:10.421Z,7.13
2022-10-10T12:37:13.040Z,8.48
2022-10-10T12:39:45.385Z,7.72
2022-10-10T12:42:32.915Z,7.90
2022-10-10T12:45:02.328Z,7.50
2022-10-10T12:48:03.947Z,6.82
2022-10-10T12:50:32.528Z,7.50
2022-10-10T12:53:01.343Z,6.78
2022-10-10T12:55:32.233Z,7.78
2022-10-10T12:58:01.830Z,6.55
2022-10-10T13:00:38.136Z,7.22
2022-10-10T13:03:11.046Z,7.93
2022-10-10T13:05:40.926Z,8.13
2022-10-10T13:08:13.217Z,5.85
2022-10-10T13:10:41.258Z,8.93
2022-10-10T13:13:18.545Z,8.15
2022-10-10T13:15:53.794Z,7.65
2022-10-10T13:18:34.663Z,8.15
2022-10-10T13:21:03.268Z,7.18
2022-10-10T13:23:31.592Z,7.57
2022-10-10T13:26:00.105Z,6.65
2022-10-10T13:28:28.221Z,6.55
2022-10-10T13:30:57.704Z,6.45
2022-10-10T13:33:33.154Z,6.45
2022-10-10T13:36:06.268Z,5.88
2022-10-10T13:38:34.370Z,4.53
2022-10-10T13:41:03.943Z,6.47
2022-10-10T13:43:32.428Z,6.07
2022-10-10T13:46:03.449Z,5.43
2022-10-10T13:48:40.907Z,6.60
2022-10-10T13:51:10.627Z,7.10
2022-10-10T13:53:47.425Z,5.53
2022-10-10T13:56:17.581Z,7.47
2022-10-10T13:58:48.038Z,6.28
2022-10-10T14:01:32.216Z,6.47
2022-10-10T14:04:03.214Z,5.25
2022-10-10T14:06:31.455Z,5.35
2022-10-10T14:09:06.361Z,5.47
2022-10-10T14:11:34.936Z,5.07
2022-10-10T14:14:05.837Z,6.32
2022-10-10T14:16:35.337Z,5.72
2022-10-10T14:19:03.397Z,5.63
2022-10-10T14:21:31.460Z,5.30
2022-10-10T14:23:59.498Z,5.35
2022-10-10T14:26:27.564Z,6.22
2022-10-10T14:28:55.679Z,5.32
2022-10-10T14:31:23.998Z,6.35
2022-10-10T14:33:53.908Z,6.18
2022-10-10T14:36:22.013Z,5.47
2022-10-10T14:38:50.101Z,4.68
2022-10-10T14:41:18.147Z,5.72
2022-10-10T14:43:46.224Z,5.75
2022-10-10T14:46:17.949Z,5.35
2022-10-10T14:48:45.989Z,4.85
2022-10-10T14:51:33.933Z,4.90
2022-10-10T14:54:10.194Z,5.47
2022-10-10T14:57:08.944Z,6.63
2022-10-10T14:59:48.367Z,4.38
2022-10-10T15:02:19.660Z,6.28
2022-10-10T15:04:47.736Z,6.00
2022-10-10T15:07:17.353Z,6.95
2022-10-10T15:10:09.585Z,5.85
2022-10-10T15:12:33.594Z,4.57
2022-10-10T15:15:01.712Z,5.13
2022-10-10T15:17:31.060Z,4.80
2022-10-10T15:19:59.147Z,8.10
2022-10-10T15:22:29.560Z,5.63
2022-10-10T15:24:57.690Z,6.28
2022-10-10T15:27:27.921Z,5.70
2022-10-10T15:29:55.985Z,5.32
2022-10-10T15:32:24.043Z,5.88
2022-10-10T15:34:52.267Z,7.40
2022-10-10T15:37:20.310Z,6.75
2022-10-10T15:39:49.702Z,5.10
2022-10-10T15:42:22.777Z,9.13
2022-10-10T15:44:51.671Z,5.45
2022-10-10T15:47:20.174Z,7.57
2022-10-10T15:49:48.325Z,7.90
2022-10-10T15:52:16.379Z,5.40
2022-10-10T15:54:48.447Z,7.25
2022-10-10T15:57:19.057Z,5.07
2022-10-10T15:59:47.724Z,5.28
2022-10-10T16:02:15.749Z,6.72
2022-10-10T16:04:43.847Z,4.88
2022-10-10T16:07:26.860Z,7.20
2022-10-10T16:09:57.919Z,7.78
2022-10-10T16:12:27.418Z,7.90
2022-10-10T16:14:55.515Z,5.45
2022-10-10T16:17:24.002Z,6.95
2022-10-10T16:19:52.386Z,6.05
2022-10-10T16:22:20.675Z,5.70
2022-10-10T16:25:21.373Z,6.05
2022-10-10T16:27:38.615Z,8.43
2022-10-10T16:30:07.737Z,5.43
2022-10-10T16:32:40.816Z,5.25
2022-10-10T16:35:10.840Z,4.25
2022-10-10T16:37:39.231Z,7.35
2022-10-10T16:40:08.471Z,7.28
2022-10-10T16:42:37.984Z,6.85
2022-10-10T16:45:06.912Z,6.00
2022-10-10T16:47:35.245Z,7.07
2022-10-10T16:50:03.335Z,7.93
2022-10-10T16:52:33.043Z,6.22
2022-10-10T16:55:01.138Z,6.03
2022-10-10T16:57:29.282Z,4.95
2022-10-10T16:59:58.687Z,4.35
2022-10-10T17:02:26.823Z,8.25
2022-10-10T17:04:55.269Z,6.72
2022-10-10T17:07:23.383Z,5.75
2022-10-10T17:09:51.465Z,7.20
2022-10-10T17:12:19.620Z,7.85
2022-10-10T17:14:47.686Z,7.03
2022-10-10T17:17:19.365Z,9.32
2022-10-10T17:19:49.173Z,6.10
2022-10-10T17:22:17.353Z,9.68
2022-10-10T17:24:45.492Z,4.88
2022-10-10T17:27:13.947Z,5.72
2022-10-10T17:29:41.986Z,9.27
2022-10-10T17:32:10.062Z,5.40
2022-10-10T17:34:39.565Z,4.45
2022-10-10T17:37:07.606Z,6.57
2022-10-10T17:39:35.687Z,3.08
2022-10-10T17:42:04.623Z,6.40
2022-10-10T17:44:39.083Z,9.57
2022-10-10T17:47:13.610Z,5.03
2022-10-10T17:49:46.784Z,5.13
2022-10-10T17:52:21.096Z,7.53
2022-10-10T17:54:50.499Z,3.75
2022-10-10T17:57:18.853Z,5.78
2022-10-10T17:59:46.973Z,4.35
2022-10-10T18:02:16.473Z,6.55
2022-10-10T18:04:45.965Z,4.28
2022-10-10T18:07:14.236Z,6.07
2022-10-10T18:09:42.410Z,4.53
2022-10-10T18:12:10.447Z,4.68
2022-10-10T18:14:38.710Z,4.03
2022-10-10T18:17:06.767Z,4.43
2022-10-10T18:19:35.086Z,3.88
2022-10-10T18:22:04.618Z,4.45
2022-10-10T18:24:32.768Z,3.90
2022-10-10T18:27:00.903Z,6.40
2022-10-10T18:29:29.048Z,4.97
2022-10-10T18:31:57.521Z,10.38
2022-10-10T18:34:25.701Z,4.90
2022-10-10T18:36:53.904Z,9.90
2022-10-10T18:39:23.490Z,9.27
2022-10-10T18:41:52.010Z,12.15
2022-10-10T18:44:20.495Z,8.93
2022-10-10T18:46:49.544Z,5.95
2022-10-10T18:49:17.754Z,8.40
2022-10-10T18:51:46.359Z,6.15
2022-10-10T18:54:15.445Z,4.72
2022-10-10T18:56:45.031Z,5.22
2022-10-10T18:59:14.951Z,7.88
2022-10-10T19:01:45.525Z,5.55
2022-10-10T19:04:14.999Z,6.93
2022-10-10T19:06:43.254Z,4.95
2022-10-10T19:09:12.892Z,5.13
2022-10-10T19:11:42.035Z,5.22
2022-10-10T19:14:12.504Z,4.18
2022-10-10T19:16:40.639Z,5.43
2022-10-10T19:19:08.698Z,4.78
2022-10-10T19:21:37.845Z,4.15
2022-10-10T19:24:06.971Z,4.97
2022-10-10T19:26:35.747Z,4.93
2022-10-10T19:29:06.821Z,5.90
2022-10-10T19:31:36.800Z,4.82
2022-10-10T19:34:05.276Z,7.03
2022-10-10T19:36:35.061Z,6.13
2022-10-10T19:39:04.335Z,12.30
2022-10-10T19:41:32.396Z,7.22
2022-10-10T19:44:04.710Z,5.13
2022-10-10T19:46:36.737Z,7.47
2022-10-10T19:49:06.519Z,5.82
2022-10-10T19:51:34.587Z,6.43
2022-10-10T19:54:02.692Z,8.38
2022-10-10T19:56:30.828Z,6.63
2022-10-10T19:58:59.820Z,8.75
2022-10-10T20:01:29.847Z,6.45
2022-10-10T20:03:58.407Z,9.00
2022-10-10T20:06:27.900Z,5.70
2022-10-10T20:08:55.963Z,22.90
2022-10-10T20:11:26.224Z,9.82
2022-10-10T20:13:55.482Z,7.80
2022-10-10T20:16:23.933Z,5.55
2022-10-10T20:18:52.055Z,6.45
2022-10-10T20:21:22.052Z,5.97
2022-10-10T20:23:51.514Z,8.57
2022-10-10T20:26:20.536Z,4.90
2022-10-10T20:28:49.180Z,8.93
2022-10-10T20:31:20.058Z,6.45
2022-10-10T20:33:48.418Z,5.22
2022-10-10T20:36:16.580Z,4.50
2022-10-10T20:38:44.642Z,6.45
2022-10-10T20:41:14.217Z,5.25
2022-10-10T20:43:42.285Z,4.95
2022-10-10T20:46:11.269Z,6.07
2022-10-10T20:48:39.397Z,5.85
2022-10-10T20:51:08.446Z,6.18
2022-10-10T20:53:36.530Z,7.22
2022-10-10T20:56:06.177Z,6.93
2022-10-10T20:58:37.221Z,5.57
2022-10-10T21:01:07.051Z,8.52
2022-10-10T21:03:35.164Z,7.78
2022-10-10T21:06:07.722Z,7.15
2022-10-10T21:08:36.050Z,8.07
2022-10-10T21:11:06.321Z,5.35
2022-10-10T21:13:36.139Z,6.72
2022-10-10T21:16:06.649Z,5.13
2022-10-10T21:18:35.009Z,11.15
2022-10-10T21:21:03.267Z,8.38
2022-10-10T21:23:33.744Z,8.20
2022-10-10T21:26:05.319Z,9.77
2022-10-10T21:28:33.681Z,8.48
2022-10-10T21:31:03.214Z,9.65
2022-10-10T21:33:31.345Z,5.22
2022-10-10T21:35:59.546Z,8.00
2022-10-10T21:38:27.606Z,7.72
2022-10-10T21:40:55.674Z,7.68
2022-10-10T21:43:23.703Z,6.50
2022-10-10T21:45:51.766Z,6.07
2022-10-10T21:48:21.233Z,8.70
2022-10-10T21:50:49.297Z,12.15
2022-10-10T21:53:17.425Z,5.35
2022-10-10T21:55:45.471Z,6.00
2022-10-10T21:58:13.498Z,5.97
2022-10-10T22:00:41.624Z,8.05
2022-10-10T22:03:09.821Z,9.23
2022-10-10T22:05:40.732Z,9.10
2022-10-10T22:08:08.939Z,5.35
2022-10-10T22:10:37.069Z,10.00
2022-10-10T22:13:05.239Z,5.68
2022-10-10T22:15:33.304Z,12.05
2022-10-10T22:18:01.508Z,5.13
2022-10-10T22:20:29.587Z,5.40
2022-10-10T22:22:58.971Z,6.97
2022-10-10T22:25:27.131Z,6.47
2022-10-10T22:27:57.257Z,4.40
2022-10-10T22:30:25.517Z,7.88
2022-10-10T22:32:53.554Z,5.20
2022-10-10T22:35:21.566Z,7.43
2022-10-10T22:37:49.599Z,7.15
2022-10-10T22:40:19.175Z,6.50
2022-10-10T22:42:47.201Z,4.78
2022-10-10T22:45:15.411Z,6.07
2022-10-10T22:47:43.421Z,8.98
2022-10-10T22:50:12.465Z,4.78
2022-10-10T22:52:40.558Z,6.70
2022-10-10T22:55:10.246Z,5.72
2022-10-10T22:57:41.677Z,6.72
2022-10-10T23:00:11.224Z,5.25
2022-10-10T23:02:39.251Z,7.45
2022-10-10T23:05:08.490Z,6.15
2022-10-10T23:07:36.522Z,5.00
2022-10-10T23:10:05.145Z,6.65
2022-10-10T23:12:33.164Z,5.85
2022-10-10T23:15:02.652Z,8.57
2022-10-10T23:17:30.741Z,11.20
2022-10-10T23:19:58.774Z,6.18
2022-10-10T23:22:26.879Z,5.70
2022-10-10T23:24:54.932Z,6.03
2022-10-10T23:27:22.959Z,8.95
2022-10-10T23:29:51.027Z,4.95
2022-10-10T23:32:20.434Z,5.47
2022-10-10T23:34:48.465Z,6.35
2022-10-10T23:37:16.531Z,4.43
2022-10-10T23:39:44.617Z,7.68
2022-10-10T23:42:12.712Z,6.32
2022-10-10T23:44:40.753Z,7.93
2022-10-10T23:47:08.802Z,5.97
2022-10-10T23:49:38.191Z,6.60
2022-10-10T23:52:06.409Z,5.80
2022-10-10T23:54:34.500Z,4.80
2022-10-10T23:57:02.568Z,5.22
2022-10-10T23:59:30.756Z,5.75
